Time;durP1;ratioP1;P1;durP2;ratioP2;P2;SDS_P1;SDS_P2;PMS_P1;PMS_P2;Temp;Humidity;BMP_temperature;BMP_pressure;BME280_temperature;BME280_humidity;BME280_pressure;Samples;Min_cycle;Max_cycle;Signal;HPM_P1;HPM_P2
2022/07/28 00:02:21;;;;;;;1.90;0.90;;;15.10;46.20;;;;;;5053538;28;20201;-79
2022/07/28 00:04:48;;;;;;;1.98;1.00;;;15.10;47.60;;;;;;5053524;28;20301;-79
2022/07/28 00:07:16;;;;;;;2.58;0.90;;;15.10;47.50;;;;;;5053737;28;20198;-79
2022/07/28 00:09:43;;;;;;;3.38;1.20;;;15.10;49.70;;;;;;5053426;28;20205;-79
2022/07/28 00:12:10;;;;;;;3.80;1.10;;;15.10;51.20;;;;;;5053719;28;20508;-79
2022/07/28 00:14:36;;;;;;;1.80;1.02;;;15.10;51.20;;;;;;5053224;28;20204;-78
2022/07/28 00:17:03;;;;;;;2.78;1.08;;;15.00;53.90;;;;;;5053578;28;20206;-79
2022/07/28 00:19:30;;;;;;;2.70;1.10;;;15.00;56.70;;;;;;5053892;28;20194;-79
2022/07/28 00:21:57;;;;;;;2.38;1.02;;;15.00;58.10;;;;;;5053098;28;20201;-78
2022/07/28 00:24:25;;;;;;;1.92;0.88;;;15.00;53.80;;;;;;5053928;28;20202;-79
2022/07/28 00:26:52;;;;;;;3.92;1.10;;;15.00;56.10;;;;;;5053495;28;20214;-79
2022/07/28 00:29:19;;;;;;;1.58;1.00;;;14.90;58.10;;;;;;5053223;28;20194;-80
2022/07/28 00:31:46;;;;;;;4.15;1.35;;;14.90;61.40;;;;;;5054296;28;20206;-78
2022/07/28 00:34:13;;;;;;;1.70;1.20;;;14.90;61.80;;;;;;5061977;28;20554;-80
2022/07/28 00:36:40;;;;;;;3.72;1.05;;;14.90;64.30;;;;;;5052325;28;20238;-80
2022/07/28 00:39:07;;;;;;;5.15;1.27;;;14.90;68.90;;;;;;5054121;28;20528;-78
2022/07/28 00:41:36;;;;;;;1.90;1.05;;;14.90;71.20;;;;;;5055163;28;20225;-78
2022/07/28 00:44:07;;;;;;;2.13;1.10;;;14.80;71.50;;;;;;5060049;28;20202;-79
2022/07/28 00:46:34;;;;;;;3.08;1.17;;;14.80;69.30;;;;;;5060244;28;20190;-79
2022/07/28 00:49:01;;;;;;;3.67;1.05;;;14.80;72.90;;;;;;5062097;28;20233;-80
2022/07/28 00:51:29;;;;;;;6.45;0.98;;;14.70;76.00;;;;;;5060080;28;20202;-79
2022/07/28 00:53:56;;;;;;;3.58;1.10;;;14.70;76.10;;;;;;5057901;28;20194;-80
2022/07/28 00:56:24;;;;;;;3.07;1.20;;;14.70;77.00;;;;;;5057734;28;20610;-78
2022/07/28 00:58:52;;;;;;;1.88;1.13;;;14.60;79.00;;;;;;5054959;28;20226;-79
2022/07/28 01:01:20;;;;;;;2.22;1.05;;;14.60;81.10;;;;;;5072676;28;20201;-79
2022/07/28 01:03:50;;;;;;;3.70;1.40;;;14.60;82.40;;;;;;5052932;28;20633;-79
2022/07/28 01:06:43;;;;;;;1.58;1.00;;;14.60;83.50;;;;;;5053469;28;20220;-78
2022/07/28 01:09:22;;;;;;;1.00;0.90;;;14.60;85.60;;;;;;5046624;28;20190;-78
2022/07/28 01:11:57;;;;;;;2.43;1.00;;;14.60;86.80;;;;;;5051965;28;20205;-79
2022/07/28 01:14:36;;;;;;;3.00;1.33;;;14.60;89.20;;;;;;5052815;28;20186;-79
2022/07/28 01:17:08;;;;;;;1.58;1.05;;;14.50;90.30;;;;;;5052592;28;20570;-78
2022/07/28 01:19:42;;;;;;;3.45;1.30;;;14.50;91.10;;;;;;5052131;28;20501;-80
2022/07/28 01:22:12;;;;;;;1.55;0.90;;;14.50;91.50;;;;;;5053203;28;20197;-81
2022/07/28 01:24:54;;;;;;;1.65;1.00;;;14.50;92.50;;;;;;5051545;28;20202;-80
2022/07/28 01:27:37;;;;;;;2.23;1.00;;;14.50;94.10;;;;;;5052362;28;20272;-79
2022/07/28 01:30:10;;;;;;;3.20;1.20;;;14.40;93.90;;;;;;5052551;28;20680;-78
2022/07/28 01:32:42;;;;;;;2.20;1.27;;;14.40;94.80;;;;;;5051749;28;20198;-78
2022/07/28 01:35:14;;;;;;;1.80;0.90;;;14.40;95.20;;;;;;5052577;28;20272;-80
2022/07/28 01:37:44;;;;;;;1.27;0.70;;;14.30;95.90;;;;;;5051784;28;20269;-80
2022/07/28 01:40:15;;;;;;;1.98;1.10;;;14.30;96.30;;;;;;5051651;28;20241;-79
2022/07/28 01:42:45;;;;;;;1.90;1.17;;;14.30;96.90;;;;;;5052427;28;20190;-79
2022/07/28 01:45:15;;;;;;;1.20;1.10;;;14.20;97.50;;;;;;5052574;28;20292;-79
2022/07/28 01:47:46;;;;;;;1.30;0.93;;;14.20;98.30;;;;;;5051571;28;20189;-78
2022/07/28 01:50:16;;;;;;;1.63;1.00;;;14.10;99.20;;;;;;5051656;28;20563;-79
2022/07/28 01:52:46;;;;;;;0.97;0.87;;;14.10;99.90;;;;;;5051966;28;20263;-80
2022/07/28 01:55:14;;;;;;;1.63;0.93;;;14.10;99.90;;;;;;5052064;28;20518;-80
2022/07/28 01:57:43;;;;;;;1.33;0.95;;;14.00;99.90;;;;;;5051913;28;20209;-78
2022/07/28 02:00:12;;;;;;;2.23;1.20;;;14.00;99.90;;;;;;5051169;28;20202;-79
2022/07/28 02:02:42;;;;;;;1.55;1.00;;;14.00;99.90;;;;;;5051974;28;20248;-79
2022/07/28 02:05:15;;;;;;;4.13;1.20;;;14.00;99.90;;;;;;5051819;28;20695;-79
2022/07/28 02:07:44;;;;;;;6.00;1.33;;;14.00;99.90;;;;;;5051090;28;20552;-79
2022/07/28 02:10:14;;;;;;;3.43;1.10;;;14.00;99.90;;;;;;5051765;28;20287;-78
2022/07/28 02:12:44;;;;;;;3.10;1.23;;;14.00;99.90;;;;;;5051740;28;20202;-79
2022/07/28 02:15:12;;;;;;;1.57;1.00;;;14.00;99.90;;;;;;5051839;28;20232;-78
2022/07/28 02:17:42;;;;;;;1.87;1.00;;;14.00;99.90;;;;;;5052277;28;20198;-79
2022/07/28 02:20:12;;;;;;;2.93;1.20;;;14.00;99.90;;;;;;5052421;28;20453;-79
2022/07/28 02:22:40;;;;;;;3.60;1.23;;;14.00;99.90;;;;;;5050962;28;20571;-79
2022/07/28 02:25:08;;;;;;;2.07;1.20;;;14.00;99.90;;;;;;5052082;28;20292;-80
2022/07/28 02:27:39;;;;;;;1.37;0.90;;;14.00;99.90;;;;;;5051539;28;20195;-78
2022/07/28 02:30:10;;;;;;;2.43;1.23;;;14.10;99.90;;;;;;5050734;28;20291;-78
2022/07/28 02:32:40;;;;;;;2.27;1.13;;;14.10;99.90;;;;;;5051509;28;20186;-78
2022/07/28 02:35:11;;;;;;;1.00;0.90;;;14.10;99.90;;;;;;5051000;28;20193;-79
2022/07/28 02:37:41;;;;;;;3.30;1.00;;;14.10;99.90;;;;;;5051175;28;20235;-78
2022/07/28 02:40:13;;;;;;;2.13;1.07;;;14.10;99.90;;;;;;5051322;28;20217;-78
2022/07/28 02:42:41;;;;;;;2.37;1.00;;;14.10;99.90;;;;;;5050316;28;20611;-79
2022/07/28 02:45:11;;;;;;;2.17;0.98;;;14.10;99.90;;;;;;5051485;28;20194;-78
2022/07/28 02:47:44;;;;;;;2.22;1.05;;;14.10;99.90;;;;;;5051097;28;20281;-79
2022/07/28 02:50:14;;;;;;;2.27;1.20;;;14.10;99.90;;;;;;5051288;28;20194;-77
2022/07/28 02:52:44;;;;;;;2.70;0.90;;;14.20;99.90;;;;;;5051252;28;20201;-80
2022/07/28 02:55:14;;;;;;;5.78;1.30;;;14.10;99.90;;;;;;5051263;28;20190;-79
2022/07/28 02:57:42;;;;;;;2.55;1.00;;;14.20;99.90;;;;;;5050988;28;20198;-79
2022/07/28 03:00:11;;;;;;;1.98;0.88;;;14.20;99.90;;;;;;5051349;28;20209;-79
2022/07/28 03:02:40;;;;;;;2.60;1.07;;;14.20;99.90;;;;;;5051452;28;20210;-79
2022/07/28 03:05:08;;;;;;;3.57;1.00;;;14.20;99.90;;;;;;5055267;28;20228;-78
2022/07/28 03:07:37;;;;;;;1.47;0.93;;;14.30;99.90;;;;;;5056225;28;20210;-80
2022/07/28 03:10:04;;;;;;;4.33;1.37;;;14.30;99.90;;;;;;5062713;28;20284;-79
2022/07/28 03:12:31;;;;;;;1.13;0.70;;;14.30;99.90;;;;;;5056672;28;20202;-80
2022/07/28 03:14:58;;;;;;;2.63;0.90;;;14.30;99.90;;;;;;5051090;28;20236;-79
2022/07/28 03:17:25;;;;;;;1.92;0.85;;;14.30;99.90;;;;;;5062530;28;20205;-79
2022/07/28 03:19:52;;;;;;;1.97;0.90;;;14.30;99.90;;;;;;5056088;28;20316;-80
2022/07/28 03:22:18;;;;;;;1.13;0.90;;;14.30;99.90;;;;;;5051295;28;20186;-78
2022/07/28 03:24:51;;;;;;;3.07;1.00;;;14.30;99.90;;;;;;5050570;28;20205;-79
2022/07/28 03:27:22;;;;;;;2.70;1.07;;;14.30;99.90;;;;;;5055010;28;20204;-78
2022/07/28 03:29:53;;;;;;;3.93;1.00;;;14.30;99.90;;;;;;5064770;28;20201;-79
2022/07/28 03:32:23;;;;;;;2.30;1.10;;;14.30;99.90;;;;;;5074139;28;20624;-78
2022/07/28 03:34:51;;;;;;;0.90;0.80;;;14.30;99.90;;;;;;5071981;28;20205;-79
2022/07/28 03:37:25;;;;;;;3.00;1.00;;;14.30;99.90;;;;;;5054600;28;20234;-79
2022/07/28 03:39:57;;;;;;;3.17;1.17;;;14.30;99.90;;;;;;5054151;28;20236;-78
2022/07/28 03:42:26;;;;;;;1.90;0.90;;;14.30;99.90;;;;;;5054583;28;20580;-78
2022/07/28 03:44:53;;;;;;;1.87;0.90;;;14.30;99.90;;;;;;5054301;28;20201;-80
2022/07/28 03:47:21;;;;;;;2.23;1.10;;;14.20;99.90;;;;;;5054055;28;20229;-78
2022/07/28 03:49:48;;;;;;;1.45;0.90;;;14.20;99.90;;;;;;5054555;28;20244;-78
2022/07/28 03:52:16;;;;;;;4.18;0.90;;;14.20;99.90;;;;;;5053835;28;20212;-79
2022/07/28 03:54:43;;;;;;;1.43;0.90;;;14.20;99.90;;;;;;5054629;28;20198;-78
2022/07/28 03:57:11;;;;;;;1.48;0.80;;;14.20;99.90;;;;;;5054524;28;20280;-78
2022/07/28 03:59:39;;;;;;;2.15;0.95;;;14.20;99.90;;;;;;5052981;28;20225;-77
2022/07/28 04:02:06;;;;;;;1.07;0.87;;;14.20;99.90;;;;;;5073645;28;20247;-77
2022/07/28 04:04:33;;;;;;;3.60;1.00;;;14.20;99.90;;;;;;5074465;28;20197;-78
2022/07/28 04:06:59;;;;;;;1.07;0.73;;;14.10;99.90;;;;;;5069838;28;20208;-78
2022/07/28 04:09:26;;;;;;;0.88;0.70;;;14.10;99.90;;;;;;5054002;28;20594;-78
2022/07/28 04:11:53;;;;;;;1.73;1.00;;;14.10;99.90;;;;;;5054195;28;20197;-78
2022/07/28 04:14:21;;;;;;;1.67;0.80;;;14.10;99.90;;;;;;5053342;28;20198;-78
2022/07/28 04:16:48;;;;;;;1.07;0.70;;;14.10;99.90;;;;;;5053559;28;20198;-78
2022/07/28 04:19:15;;;;;;;1.73;1.00;;;14.10;99.90;;;;;;5054201;28;20514;-79
2022/07/28 04:21:42;;;;;;;1.70;1.13;;;14.10;99.90;;;;;;5053430;28;20205;-78
2022/07/28 04:24:10;;;;;;;3.40;1.13;;;14.10;99.90;;;;;;5057519;28;20193;-78
2022/07/28 04:26:37;;;;;;;4.70;0.90;;;14.10;99.90;;;;;;5073593;28;20363;-77
2022/07/28 04:29:04;;;;;;;1.52;1.00;;;14.20;99.90;;;;;;5073228;28;20204;-77
2022/07/28 04:31:32;;;;;;;1.30;0.80;;;14.20;99.90;;;;;;5064343;28;20292;-79
2022/07/28 04:33:59;;;;;;;1.70;0.93;;;14.20;99.90;;;;;;5053804;28;20198;-77
2022/07/28 04:36:26;;;;;;;2.07;1.10;;;14.20;99.90;;;;;;5052425;28;20229;-77
2022/07/28 04:38:53;;;;;;;2.00;1.00;;;14.30;99.90;;;;;;5053730;28;20221;-78
2022/07/28 04:41:20;;;;;;;1.43;1.13;;;14.30;99.90;;;;;;5053202;28;20594;-78
2022/07/28 04:43:46;;;;;;;1.07;0.83;;;14.30;99.90;;;;;;5052469;28;20190;-78
2022/07/28 04:46:13;;;;;;;2.70;1.35;;;14.40;99.90;;;;;;5052843;28;20203;-78
2022/07/28 04:48:42;;;;;;;2.95;0.90;;;14.40;99.90;;;;;;5052287;28;20216;-77
2022/07/28 04:51:09;;;;;;;4.68;1.30;;;14.40;99.90;;;;;;5053458;28;20283;-78
2022/07/28 04:53:36;;;;;;;1.17;0.80;;;14.40;99.90;;;;;;5053107;28;20483;-78
2022/07/28 04:56:04;;;;;;;2.05;1.00;;;14.40;99.90;;;;;;5052593;28;20473;-78
2022/07/28 04:58:31;;;;;;;2.78;1.30;;;14.50;99.90;;;;;;5052839;28;20490;-78
2022/07/28 05:00:57;;;;;;;2.75;1.30;;;14.50;99.90;;;;;;5052866;28;20194;-78
2022/07/28 05:03:24;;;;;;;2.78;1.23;;;14.60;99.90;;;;;;5052322;28;20217;-77
2022/07/28 05:05:53;;;;;;;3.17;1.00;;;14.60;99.90;;;;;;5052460;28;20208;-78
2022/07/28 05:08:20;;;;;;;4.67;1.37;;;14.70;99.90;;;;;;5052816;28;20281;-77
2022/07/28 05:10:46;;;;;;;3.77;1.20;;;14.80;99.90;;;;;;5052099;28;20208;-78
2022/07/28 05:13:13;;;;;;;3.50;1.10;;;14.80;99.90;;;;;;5052769;28;20198;-78
2022/07/28 05:15:40;;;;;;;1.20;0.97;;;14.90;99.90;;;;;;5052105;28;20224;-79
2022/07/28 05:18:07;;;;;;;2.23;0.90;;;14.90;99.90;;;;;;5052066;28;20210;-78
2022/07/28 05:20:34;;;;;;;1.92;1.00;;;15.00;99.90;;;;;;5052567;28;20249;-80
2022/07/28 05:23:02;;;;;;;1.90;1.13;;;15.10;99.90;;;;;;5052672;28;20198;-78
2022/07/28 05:25:29;;;;;;;2.13;0.90;;;15.20;99.90;;;;;;5051683;28;20216;-78
2022/07/28 05:27:56;;;;;;;5.63;1.10;;;15.20;99.90;;;;;;5052777;28;20293;-80
2022/07/28 05:30:23;;;;;;;3.05;1.10;;;15.30;99.90;;;;;;5052426;28;20285;-78
2022/07/28 05:32:52;;;;;;;1.35;0.82;;;15.40;99.90;;;;;;5051959;28;20194;-79
2022/07/28 05:35:19;;;;;;;1.60;1.10;;;15.50;99.90;;;;;;5052148;28;20217;-78
2022/07/28 05:37:46;;;;;;;2.63;1.10;;;15.50;99.90;;;;;;5052407;28;20244;-79
2022/07/28 05:40:17;;;;;;;1.98;1.02;;;15.60;96.10;;;;;;5052198;28;20312;-78
2022/07/28 05:42:46;;;;;;;2.20;1.25;;;15.70;93.80;;;;;;5052712;28;20575;-79
2022/07/28 05:45:13;;;;;;;3.47;1.38;;;15.80;90.70;;;;;;5052501;28;20259;-78
2022/07/28 05:47:42;;;;;;;3.28;1.40;;;15.90;72.30;;;;;;5051151;28;20208;-79
2022/07/28 05:50:10;;;;;;;2.55;1.10;;;16.00;60.80;;;;;;5052428;28;20765;-78
2022/07/28 05:52:37;;;;;;;1.70;1.05;;;16.10;52.20;;;;;;5051188;28;20202;-78
2022/07/28 05:55:04;;;;;;;3.30;1.00;;;16.20;49.40;;;;;;5051823;28;20194;-78
2022/07/28 05:57:33;;;;;;;1.48;0.93;;;16.30;41.20;;;;;;5051762;28;20701;-78
2022/07/28 06:00:00;;;;;;;2.60;1.08;;;16.50;42.60;;;;;;5051118;28;20232;-78
2022/07/28 06:02:27;;;;;;;2.28;1.20;;;16.60;28.80;;;;;;5051913;28;20209;-77
2022/07/28 06:04:53;;;;;;;2.38;1.30;;;16.80;26.70;;;;;;5052009;28;20222;-78
2022/07/28 06:07:21;;;;;;;4.35;1.30;;;16.90;7.30;;;;;;5050460;28;20258;-78
2022/07/28 06:09:48;;;;;;;3.15;1.20;;;17.00;1.00;;;;;;5052000;28;20197;-78
2022/07/28 06:12:15;;;;;;;3.83;1.05;;;17.10;3.80;;;;;;5051705;28;20204;-79
2022/07/28 06:14:43;;;;;;;6.07;1.13;;;17.10;1.00;;;;;;5050895;28;20282;-79
2022/07/28 06:17:10;;;;;;;5.10;0.98;;;17.20;1.00;;;;;;5051226;28;20217;-78
2022/07/28 06:19:37;;;;;;;3.33;1.05;;;17.30;1.00;;;;;;5051832;28;20321;-78
2022/07/28 06:22:05;;;;;;;4.53;1.33;;;17.40;1.00;;;;;;5051285;28;20657;-78
2022/07/28 06:24:32;;;;;;;3.63;1.23;;;17.40;1.00;;;;;;5051765;28;20260;-77
2022/07/28 06:27:00;;;;;;;2.80;1.48;;;17.50;1.00;;;;;;5055900;28;20876;-77
2022/07/28 06:29:26;;;;;;;2.83;1.60;;;17.70;1.00;;;;;;5070218;28;20500;-77
2022/07/28 06:31:55;;;;;;;3.50;1.30;;;17.80;1.00;;;;;;5071492;28;20478;-78
2022/07/28 06:34:22;;;;;;;2.78;1.30;;;17.90;1.00;;;;;;5070729;28;20541;-78
2022/07/28 06:36:49;;;;;;;2.47;1.40;;;17.80;1.00;;;;;;5063136;28;20233;-77
2022/07/28 06:39:16;;;;;;;3.00;1.38;;;17.90;1.00;;;;;;5051581;28;20225;-78
2022/07/28 06:41:43;;;;;;;3.92;1.40;;;18.10;1.00;;;;;;5051089;28;20531;-77
2022/07/28 06:44:10;;;;;;;2.65;1.42;;;18.20;1.00;;;;;;5063971;28;20496;-78
2022/07/28 06:46:37;;;;;;;4.25;1.50;;;18.20;1.00;;;;;;5069992;28;20213;-77
2022/07/28 06:49:06;;;;;;;6.28;1.50;;;18.20;1.00;;;;;;5049701;28;20210;-79
2022/07/28 06:51:33;;;;;;;3.80;1.10;;;18.30;1.00;;;;;;5051894;28;20293;-79
2022/07/28 06:54:00;;;;;;;2.45;1.27;;;18.50;1.00;;;;;;5051380;28;20212;-78
2022/07/28 06:56:26;;;;;;;3.28;1.20;;;18.50;1.00;;;;;;5050930;28;20205;-78
2022/07/28 06:58:53;;;;;;;4.30;1.30;;;18.60;1.00;;;;;;5051830;28;20202;-77
2022/07/28 07:01:20;;;;;;;2.80;1.27;;;19.00;1.00;;;;;;5055131;28;20228;-79
2022/07/28 07:03:47;;;;;;;2.30;1.30;;;19.40;1.00;;;;;;5054563;28;20213;-78
2022/07/28 07:06:15;;;;;;;1.52;1.17;;;19.80;1.00;;;;;;5055528;28;20275;-80
2022/07/28 07:08:42;;;;;;;2.40;1.02;;;19.90;99.90;;;;;;5054409;28;20208;-78
2022/07/28 07:11:10;;;;;;;3.85;1.20;;;19.90;99.90;;;;;;5055113;28;20236;-79
2022/07/28 07:13:37;;;;;;;2.85;1.10;;;20.00;1.00;;;;;;5055717;28;20285;-79
2022/07/28 07:16:04;;;;;;;1.67;1.00;;;20.20;99.90;;;;;;5055031;28;20292;-78
2022/07/28 07:18:31;;;;;;;2.55;0.90;;;20.50;99.90;;;;;;5054936;28;20506;-79
2022/07/28 07:20:58;;;;;;;4.30;1.30;;;20.80;99.90;;;;;;5055194;28;20234;-79
2022/07/28 07:23:26;;;;;;;4.18;0.90;;;21.20;99.90;;;;;;5055106;28;20221;-77
2022/07/28 07:25:53;;;;;;;1.98;1.00;;;21.40;28.30;;;;;;5054830;28;20206;-78
2022/07/28 07:28:20;;;;;;;2.20;0.95;;;21.60;1.00;;;;;;5055223;28;20470;-78
2022/07/28 07:30:47;;;;;;;1.77;0.93;;;21.60;1.00;;;;;;5054304;28;20202;-78
2022/07/28 07:33:14;;;;;;;2.72;1.05;;;21.60;99.90;;;;;;5055464;28;20193;-79
2022/07/28 07:35:41;;;;;;;4.18;0.93;;;21.70;1.00;;;;;;5055238;28;20211;-79
2022/07/28 07:38:08;;;;;;;3.03;1.10;;;21.90;99.90;;;;;;5054697;28;20208;-78
2022/07/28 07:40:36;;;;;;;2.55;1.17;;;22.10;1.00;;;;;;5056268;28;20226;-79
2022/07/28 07:43:04;;;;;;;2.38;1.15;;;22.30;1.00;;;;;;5055836;28;20197;-79
2022/07/28 07:45:30;;;;;;;3.17;1.10;;;22.60;1.00;;;;;;5059006;28;20239;-80
2022/07/28 07:47:57;;;;;;;1.52;0.80;;;22.70;99.90;;;;;;5075909;28;20198;-79
2022/07/28 07:50:24;;;;;;;3.35;1.10;;;22.80;1.00;;;;;;5075877;28;20201;-79
2022/07/28 07:52:51;;;;;;;2.03;1.10;;;22.70;99.90;;;;;;5080842;28;20277;-79
2022/07/28 07:55:18;;;;;;;4.63;1.10;;;22.80;99.90;;;;;;5080941;28;20284;-79
2022/07/28 07:57:47;;;;;;;3.95;0.88;;;22.70;1.00;;;;;;5060836;28;20489;-78
2022/07/28 08:00:14;;;;;;;1.88;1.08;;;22.90;11.60;;;;;;5060379;28;20224;-79
2022/07/28 08:02:41;;;;;;;2.08;0.90;;;23.10;1.00;;;;;;5061095;28;20202;-81
2022/07/28 08:05:10;;;;;;;1.67;0.80;;;23.30;1.00;;;;;;5059092;28;20257;-79
2022/07/28 08:07:37;;;;;;;0.98;0.63;;;23.30;1.00;;;;;;5058948;28;20202;-79
2022/07/28 08:10:04;;;;;;;1.58;0.90;;;23.30;1.00;;;;;;5055624;28;20209;-79
2022/07/28 08:12:31;;;;;;;2.35;1.00;;;23.50;1.00;;;;;;5053240;28;20217;-79
2022/07/28 08:15:00;;;;;;;2.65;1.05;;;23.50;1.00;;;;;;5054753;28;20289;-79
2022/07/28 08:17:26;;;;;;;2.65;1.23;;;23.40;1.00;;;;;;5054958;28;20202;-81
2022/07/28 08:19:53;;;;;;;2.33;0.77;;;23.80;99.90;;;;;;5053371;28;20218;-78
2022/07/28 08:22:20;;;;;;;3.13;0.90;;;23.90;1.00;;;;;;5054806;28;20206;-82
2022/07/28 08:24:47;;;;;;;4.88;1.00;;;23.90;99.90;;;;;;5054309;28;20240;-79
2022/07/28 08:27:14;;;;;;;2.38;0.85;;;23.90;99.90;;;;;;5053278;28;20208;-79
2022/07/28 08:29:41;;;;;;;4.35;1.00;;;24.00;99.90;;;;;;5054176;28;20190;-82
2022/07/28 08:32:10;;;;;;;1.95;0.80;;;24.00;1.00;;;;;;5054257;28;20201;-78
2022/07/28 08:34:37;;;;;;;1.52;0.93;;;24.00;1.00;;;;;;5053384;28;20297;-80
2022/07/28 08:37:05;;;;;;;3.67;0.93;;;24.00;1.00;;;;;;5054945;28;20221;-81
2022/07/28 08:39:33;;;;;;;2.13;0.68;;;23.90;1.00;;;;;;5074984;28;20324;-84
2022/07/28 08:42:04;;;;;;;3.08;0.90;;;23.80;1.00;;;;;;5069019;28;20205;-85
2022/07/28 08:44:41;;;;;;;2.03;0.80;;;23.50;1.00;;;;;;5054175;28;20198;-81
2022/07/28 08:47:11;;;;;;;1.85;0.88;;;23.10;1.00;;;;;;5058051;28;20548;-79
2022/07/28 08:49:40;;;;;;;3.50;0.82;;;23.20;1.00;;;;;;5073333;28;20565;-80
2022/07/28 08:52:10;;;;;;;2.67;0.90;;;23.40;1.00;;;;;;5073318;28;20288;-77
2022/07/28 08:54:40;;;;;;;2.78;0.88;;;23.80;1.00;;;;;;5054084;28;20519;-81
2022/07/28 08:57:09;;;;;;;1.67;0.63;;;23.70;1.00;;;;;;5052924;28;20194;-79
2022/07/28 08:59:38;;;;;;;1.45;0.80;;;23.70;1.00;;;;;;5053464;28;20197;-80
2022/07/28 09:02:05;;;;;;;2.40;0.98;;;23.80;1.00;;;;;;5053128;28;20292;-79
2022/07/28 09:04:43;;;;;;;2.28;0.80;;;23.70;1.00;;;;;;5054294;28;20202;-81
2022/07/28 09:07:11;;;;;;;1.08;0.70;;;23.40;99.90;;;;;;5073333;28;20263;-88
2022/07/28 09:09:38;;;;;;;0.90;0.68;;;23.30;99.90;;;;;;5073149;28;20205;-83
2022/07/28 09:12:06;;;;;;;2.38;0.90;;;23.10;99.90;;;;;;5072852;28;20201;-81
2022/07/28 09:14:33;;;;;;;3.22;0.80;;;23.00;1.00;;;;;;5060575;28;20206;-81
2022/07/28 09:17:02;;;;;;;3.33;0.80;;;23.10;99.90;;;;;;5057822;28;20201;-78
2022/07/28 09:19:29;;;;;;;2.60;0.98;;;23.30;1.00;;;;;;5072095;28;20215;-82
2022/07/28 09:21:58;;;;;;;3.25;0.85;;;23.20;1.00;;;;;;5070776;28;20209;-81
2022/07/28 09:24:35;;;;;;;1.63;0.80;;;23.00;1.00;;;;;;5051375;28;20210;-78
2022/07/28 09:27:06;;;;;;;2.20;0.82;;;23.10;1.00;;;;;;5052680;28;20197;-79
2022/07/28 09:29:33;;;;;;;2.88;0.68;;;23.40;1.00;;;;;;5052983;28;20201;-79
2022/07/28 09:32:00;;;;;;;2.70;0.90;;;23.60;1.00;;;;;;5051599;28;20204;-78
2022/07/28 09:34:27;;;;;;;2.00;0.90;;;23.30;99.90;;;;;;5052278;28;20198;-80
2022/07/28 09:36:54;;;;;;;2.08;0.93;;;23.10;99.90;;;;;;5052065;28;20246;-80
2022/07/28 09:39:33;;;;;;;2.30;0.80;;;22.90;99.90;;;;;;5051865;28;20221;-79
2022/07/28 09:42:01;;;;;;;2.55;0.90;;;22.80;99.90;;;;;;5052481;28;20301;-80
2022/07/28 09:44:28;;;;;;;2.63;0.80;;;22.80;1.00;;;;;;5050993;28;20210;-77
2022/07/28 09:46:56;;;;;;;2.63;0.93;;;22.90;1.00;;;;;;5052399;28;20285;-79
2022/07/28 09:49:41;;;;;;;1.92;0.90;;;23.10;1.00;;;;;;5052628;28;20301;-78
2022/07/28 09:52:08;;;;;;;1.63;1.05;;;23.10;1.00;;;;;;5051260;28;20279;-77
2022/07/28 09:54:36;;;;;;;3.13;0.90;;;23.40;1.00;;;;;;5048939;28;20206;-79
2022/07/28 09:57:04;;;;;;;2.25;0.90;;;23.70;1.00;;;;;;5057521;28;20614;-77
2022/07/28 09:59:41;;;;;;;5.25;1.10;;;24.00;99.90;;;;;;5050371;28;20289;-78
2022/07/28 10:02:09;;;;;;;0.85;0.70;;;23.80;99.90;;;;;;5051068;28;20228;-78
2022/07/28 10:04:38;;;;;;;1.60;0.70;;;23.60;99.90;;;;;;5055996;28;20200;-80
2022/07/28 10:07:08;;;;;;;2.97;0.95;;;23.20;99.90;;;;;;5070716;28;20201;-79
2022/07/28 10:09:37;;;;;;;4.15;1.00;;;23.30;99.90;;;;;;5068266;28;20202;-77
2022/07/28 10:12:19;;;;;;;1.00;0.80;;;23.40;99.90;;;;;;5051495;28;20206;-77
2022/07/28 10:14:46;;;;;;;2.60;1.08;;;23.10;99.90;;;;;;5050935;28;20197;-79
2022/07/28 10:17:23;;;;;;;1.42;0.80;;;23.40;99.90;;;;;;5051344;28;20213;-80
2022/07/28 10:19:53;;;;;;;2.65;0.88;;;23.50;99.90;;;;;;5050184;28;20531;-78
2022/07/28 10:22:21;;;;;;;2.03;1.00;;;23.60;99.90;;;;;;5050805;28;20229;-78
2022/07/28 10:24:53;;;;;;;1.77;0.82;;;23.90;99.90;;;;;;5051097;28;20236;-77
2022/07/28 10:27:21;;;;;;;3.53;1.23;;;24.00;99.90;;;;;;5049937;28;20217;-77
2022/07/28 10:29:53;;;;;;;1.52;0.90;;;24.00;99.90;;;;;;5051105;28;20216;-77
2022/07/28 10:32:20;;;;;;;1.77;0.93;;;24.10;99.90;;;;;;5067356;28;20416;-78
2022/07/28 10:34:51;;;;;;;3.03;0.90;;;23.80;99.90;;;;;;5061966;28;20217;-79
2022/07/28 10:37:21;;;;;;;1.80;1.00;;;23.50;99.90;;;;;;5055046;28;20244;-77
2022/07/28 10:39:55;;;;;;;4.03;0.93;;;23.20;99.90;;;;;;5063909;28;20220;-77
2022/07/28 10:42:22;;;;;;;2.33;1.00;;;23.20;99.90;;;;;;5074492;28;20256;-80
2022/07/28 10:44:51;;;;;;;3.22;1.00;;;23.30;99.90;;;;;;5069167;28;20581;-78
2022/07/28 10:47:20;;;;;;;2.15;0.80;;;23.30;99.90;;;;;;5055170;28;20202;-78
2022/07/28 10:49:48;;;;;;;5.28;1.27;;;23.10;99.90;;;;;;5055844;28;20580;-79
2022/07/28 10:52:16;;;;;;;1.38;0.90;;;22.90;99.90;;;;;;5055242;28;20201;-79
2022/07/28 10:54:49;;;;;;;3.20;0.68;;;22.40;99.90;;;;;;5054008;28;20587;-79
2022/07/28 10:57:18;;;;;;;2.03;1.00;;;22.40;99.90;;;;;;5067320;28;20207;-78
2022/07/28 10:59:58;;;;;;;1.15;0.80;;;22.50;99.90;;;;;;5075592;28;20201;-77
2022/07/28 11:02:50;;;;;;;2.13;1.05;;;22.40;99.90;;;;;;5074755;28;20212;-78
2022/07/28 11:05:32;;;;;;;1.67;0.80;;;22.70;99.90;;;;;;5070365;28;20204;-79
2022/07/28 11:08:00;;;;;;;1.90;0.75;;;22.80;99.90;;;;;;5056038;28;20190;-82
2022/07/28 11:10:28;;;;;;;1.60;1.10;;;22.70;99.90;;;;;;5054465;28;20256;-81
2022/07/28 11:12:59;;;;;;;2.58;0.85;;;22.90;99.90;;;;;;5055230;28;20201;-80
2022/07/28 11:15:33;;;;;;;3.28;0.90;;;23.20;99.90;;;;;;5054534;28;20295;-79
2022/07/28 11:18:02;;;;;;;4.55;1.05;;;23.40;99.90;;;;;;5055002;28;20202;-79
2022/07/28 11:21:07;;;;;;;1.67;0.75;;;23.40;99.90;;;;;;5055580;28;20218;-80
2022/07/28 11:23:38;;;;;;;3.25;1.15;;;23.40;99.90;;;;;;5054870;28;20201;-79
2022/07/28 11:26:33;;;;;;;2.53;1.00;;;23.40;99.90;;;;;;5069789;28;20232;-81
2022/07/28 11:29:20;;;;;;;2.90;1.05;;;23.20;99.90;;;;;;5075157;28;20300;-80
2022/07/28 11:32:04;;;;;;;2.58;1.05;;;23.30;99.90;;;;;;5068543;28;20205;-78
2022/07/28 11:35:09;;;;;;;1.08;0.75;;;23.40;99.90;;;;;;5055419;28;20200;-82
2022/07/28 11:38:07;;;;;;;3.15;0.80;;;23.30;99.90;;;;;;5055422;28;20257;-81
2022/07/28 11:40:36;;;;;;;3.97;1.58;;;23.30;99.90;;;;;;5058771;28;20221;-78
2022/07/28 11:43:29;;;;;;;1.95;0.90;;;23.40;99.90;;;;;;5057269;28;20292;-78
2022/07/28 11:46:35;;;;;;;1.02;0.77;;;23.00;99.90;;;;;;5073689;28;20197;-80
2022/07/28 11:49:30;;;;;;;1.65;0.80;;;23.00;99.90;;;;;;5062108;28;20210;-81
2022/07/28 11:52:24;;;;;;;1.77;0.88;;;22.80;99.90;;;;;;5029535;28;20876;-79
2022/07/28 11:54:53;;;;;;;2.22;0.68;;;22.80;99.90;;;;;;5060621;28;20278;-80
2022/07/28 11:57:23;;;;;;;1.40;0.90;;;22.90;99.90;;;;;;5068879;28;20501;-78
2022/07/28 12:00:01;;;;;;;1.98;0.95;;;23.30;99.90;;;;;;5056123;28;20578;-82
2022/07/28 12:02:30;;;;;;;2.28;1.20;;;23.60;99.90;;;;;;5062500;28;20674;-80
2022/07/28 12:05:10;;;;;;;2.00;1.23;;;23.70;99.90;;;;;;5053107;28;20237;-79
2022/07/28 12:07:44;;;;;;;2.45;1.10;;;24.10;99.90;;;;;;5054881;28;20225;-79
2022/07/28 12:10:39;;;;;;;4.25;0.85;;;24.40;99.90;;;;;;5054132;28;20598;-84
2022/07/28 12:13:07;;;;;;;3.33;1.20;;;24.60;99.90;;;;;;5007430;28;20202;-82
2022/07/28 12:15:34;;;;;;;2.50;1.10;;;24.80;99.90;;;;;;5059119;28;20193;-82
2022/07/28 12:18:03;;;;;;;2.47;1.10;;;24.40;99.90;;;;;;5073061;28;20212;-81
2022/07/28 12:20:34;;;;;;;1.60;1.10;;;23.90;99.90;;;;;;5055177;28;20209;-79
2022/07/28 12:23:03;;;;;;;1.50;0.90;;;23.60;99.90;;;;;;5063843;28;20684;-81
2022/07/28 12:25:39;;;;;;;2.20;1.02;;;23.70;99.90;;;;;;5063936;28;20617;-77
2022/07/28 12:28:17;;;;;;;1.40;1.00;;;23.80;99.90;;;;;;5070717;28;20201;-77
2022/07/28 12:30:44;;;;;;;1.85;1.08;;;24.00;99.90;;;;;;5067292;28;20505;-81
2022/07/28 12:33:22;;;;;;;2.88;0.95;;;24.10;99.90;;;;;;5073586;28;20201;-83
2022/07/28 12:35:53;;;;;;;1.90;0.98;;;24.20;99.90;;;;;;5066063;28;20280;-79
2022/07/28 12:38:21;;;;;;;3.28;1.08;;;24.30;99.90;;;;;;5054133;28;20273;-80
2022/07/28 12:40:49;;;;;;;1.77;1.00;;;24.50;99.90;;;;;;5053419;28;20248;-82
2022/07/28 12:43:20;;;;;;;1.63;0.90;;;24.40;99.90;;;;;;5053187;28;20210;-82
2022/07/28 12:45:47;;;;;;;2.67;0.95;;;23.80;99.90;;;;;;5053773;28;20602;-80
2022/07/28 12:48:17;;;;;;;2.75;1.00;;;23.80;99.90;;;;;;5053204;28;20243;-81
2022/07/28 12:50:44;;;;;;;2.25;1.25;;;23.90;99.90;;;;;;5056833;28;20220;-79
2022/07/28 12:53:13;;;;;;;1.58;0.90;;;24.00;99.90;;;;;;5073287;28;20225;-81
2022/07/28 12:55:42;;;;;;;0.95;0.82;;;24.20;99.90;;;;;;5072413;28;20197;-81
2022/07/28 12:58:22;;;;;;;3.72;0.90;;;24.10;99.90;;;;;;5073157;28;20205;-80
2022/07/28 13:00:50;;;;;;;1.60;0.93;;;24.00;99.90;;;;;;5055791;28;20579;-78
2022/07/28 13:03:23;;;;;;;2.42;0.95;;;24.10;99.90;;;;;;5052529;28;20200;-80